Sensation — C6FM8 — position and weather

sailwx.info

Track history (hours):
 
Tides and Currents Weather Stations Pressure Air Temp Water Temp Dewpoint Dewpoint Depression Visibility Wind Speed Wind Dir Waves Ship Positions

Sensation

Last reported at 2018-Dec-09 08:00 UTC. Time now 2018-Dec-09 20:26 UTC.
Position N 25°48' W 077°42'.

Type: Ship. MMSI: 309697000.

Wind from 130 at 20 knots

Barometer 1019.4 mb
Air temperature 25.0 ° C
Visibility: greater than 10.8 NM
Dewpoint 22.2 ° C
Water temperature 25.0 ° C

Date/timePositionNaut miles runAvg speedWind from/ knotsBaromVisibWave heightAir tempDewpointWater temp
2018-Dec-09 08:00N 25°48' W 077°42'9013.1 130 / 201019.410.8 25.022.225.0
2018-Dec-09 01:07N 26°13' W 079°18'215.4
2018-Dec-09 00:58N 26°12' W 079°21'716.3
2018-Dec-09 00:31N 26°07' W 079°26'816.6
2018-Dec-09 00:01N 26°01' W 079°33'816.9
2018-Dec-08 23:31N 25°55' W 079°40'815.9
2018-Dec-08 23:00N 25°51' W 079°48'815.5
2018-Dec-08 22:30N 25°49' W 079°56'612.2
2018-Dec-08 22:00N 25°48' W 080°03'510.5
2018-Dec-08 21:30N 25°46' W 080°08'3 5.7
2018-Dec-08 21:00N 25°47' W 080°11'1 1.4
2018-Dec-08 20:30N 25°47' W 080°10'0 0.0
2018-Dec-08 20:00N 25°47' W 080°10'0 0.0
2018-Dec-08 19:30N 25°47' W 080°10'0 0.0
2018-Dec-08 19:00N 25°47' W 080°10'0 0.0
2018-Dec-08 18:30N 25°47' W 080°10'0 0.0
2018-Dec-08 18:00N 25°47' W 080°10'0 0.0
2018-Dec-08 17:30N 25°47' W 080°10'0 0.0
2018-Dec-08 17:00N 25°47' W 080°10'0 0.0
2018-Dec-08 16:30N 25°47' W 080°10'0 0.0
2018-Dec-08 16:00N 25°47' W 080°10'0 0.0
2018-Dec-08 15:30N 25°47' W 080°10'0 0.0
2018-Dec-08 14:59N 25°47' W 080°10'0 0.0
2018-Dec-08 14:29N 25°47' W 080°10'0 0.0
2018-Dec-08 13:59N 25°47' W 080°10'0 0.0
2018-Dec-08 13:29N 25°47' W 080°10'0 0.0
2018-Dec-08 12:59N 25°47' W 080°10'0 0.0
2018-Dec-08 12:29N 25°47' W 080°10'0 0.0
2018-Dec-08 11:59N 25°47' W 080°10'1 1.2
2018-Dec-08 11:30N 25°46' W 080°10'4 8.5
2018-Dec-08 11:00N 25°46' W 080°05'4 9.0
2018-Dec-08 10:30N 25°45' W 080°00'611.2
2018-Dec-08 10:00N 25°40' W 079°57'1019.9
2018-Dec-08 09:30N 25°30' W 079°56'1020.0
2018-Dec-08 09:00N 25°20' W 079°56'387 7.6
2018-Dec-06 06:00N 18°54' W 079°24'267 7.6 030 / 181016.410.8 26.023.227.0
2018-Dec-04 19:00N 21°18' W 075°24'16720.8 020 / 131013.910.8 28.025.3
2018-Dec-04 11:00N 22°30' W 078°06'11817.1 030 / 101015.410.8 27.021.324.0
2018-Dec-04 04:06N 24°07' W 079°19'218.4
2018-Dec-04 04:00N 24°09' W 079°20'1418.8
2018-Dec-04 03:17N 24°22' W 079°23'719.0
2018-Dec-04 02:56N 24°29' W 079°24'1319.0
2018-Dec-04 02:15N 24°41' W 079°27'518.7
2018-Dec-04 01:58N 24°46' W 079°29'918.7
2018-Dec-04 01:30N 24°55' W 079°30'918.1
2018-Dec-04 01:01N 25°04' W 079°32'917.7
2018-Dec-04 00:30N 25°12' W 079°34'917.2
2018-Dec-04 00:01N 25°21' W 079°36'816.8
2018-Dec-03 23:30N 25°29' W 079°39'714.8
2018-Dec-03 23:01N 25°36' W 079°42'815.8
2018-Dec-03 22:31N 25°39' W 079°50'815.2
2018-Dec-03 22:00N 25°43' W 079°57'713.3
2018-Dec-03 21:31N 25°46' W 080°03'510.2
2018-Dec-03 21:01N 25°46' W 080°09'1 1.6
2018-Dec-03 20:23N 25°47' W 080°10'0 0.0
2018-Dec-03 19:59N 25°47' W 080°10'0 0.0
2018-Dec-03 19:23N 25°47' W 080°10'0 0.0
2018-Dec-03 18:53N 25°47' W 080°10'0 0.0
2018-Dec-03 18:29N 25°47' W 080°10'0 0.0
2018-Dec-03 17:59N 25°47' W 080°10'0 0.0
2018-Dec-03 17:29N 25°47' W 080°10'0 0.0
2018-Dec-03 16:59N 25°47' W 080°10'0 0.0
2018-Dec-03 16:29N 25°47' W 080°10'0 0.0
2018-Dec-03 15:56N 25°47' W 080°10'0 0.0
2018-Dec-03 15:29N 25°47' W 080°10'0 0.0
2018-Dec-03 14:59N 25°47' W 080°10'0 0.0
2018-Dec-03 14:30N 25°47' W 080°10'0 0.0
2018-Dec-03 14:00N 25°47' W 080°10'0 0.0
2018-Dec-03 13:30N 25°47' W 080°10'0 0.0
2018-Dec-03 13:00N 25°47' W 080°10'0 0.0
2018-Dec-03 12:30N 25°47' W 080°10'0 0.0
2018-Dec-03 12:00N 25°47' W 080°10'1 1.3
2018-Dec-03 11:30N 25°47' W 080°11'2 3.6
2018-Dec-03 11:00N 25°46' W 080°09'510.2
2018-Dec-03 10:31N 25°47' W 080°03'611.2
2018-Dec-03 10:00N 25°43' W 079°58'611.7
2018-Dec-03 09:30N 25°38' W 079°56'714.7
2018-Dec-03 09:00N 25°31' W 079°56'815.9
2018-Dec-03 08:30N 25°23' W 079°56'816.3
2018-Dec-03 08:00N 25°15' W 079°58'816.2
2018-Dec-03 07:30N 25°07' W 079°60'815.9
2018-Dec-03 07:00N 24°59' W 080°02'815.5
2018-Dec-03 06:30N 24°51' W 080°03'815.3
2018-Dec-03 06:00N 24°46' W 080°09'816.1
2018-Dec-03 05:30N 24°40' W 080°16'1019.1
2018-Dec-03 05:00N 24°34' W 080°24'918.9
2018-Dec-03 04:30N 24°27' W 080°31'918.4
2018-Dec-03 04:00N 24°21' W 080°39'1018.2
2018-Dec-03 03:27N 24°14' W 080°46'1018.2
2018-Dec-03 02:54N 24°07' W 080°54'718.0
2018-Dec-03 02:30N 24°02' W 080°59'33217.0
2018-Dec-02 07:00N 21°18' W 086°12'3118.4 120 / 301010.110.8 28.022.425.0
2018-Dec-02 05:19N 21°00' W 086°39'2919.0
2018-Dec-02 03:47N 20°37' W 086°57'415.4
2018-Dec-02 03:31N 20°33' W 086°59'4 8.1
2018-Dec-02 03:00N 20°29' W 086°59'0 0.1
2018-Dec-02 02:29N 20°29' W 086°59'0 0.0
2018-Dec-02 01:56N 20°29' W 086°59'0 0.0
2018-Dec-02 01:29N 20°29' W 086°59'0 0.0
2018-Dec-02 00:59N 20°29' W 086°59'0 0.0
2018-Dec-02 00:29N 20°29' W 086°59'0 0.0
2018-Dec-01 23:59N 20°29' W 086°59'0 0.0
2018-Dec-01 23:29N 20°29' W 086°59'0 0.0
2018-Dec-01 22:59N 20°29' W 086°59'0 0.0
2018-Dec-01 22:26N 20°29' W 086°59'0 0.0
2018-Dec-01 21:59N 20°29' W 086°59'0 0.0
2018-Dec-01 21:26N 20°29' W 086°59'0 0.0
2018-Dec-01 20:59N 20°29' W 086°59'0 0.0
2018-Dec-01 20:29N 20°29' W 086°59'0 0.0
2018-Dec-01 19:59N 20°29' W 086°59'0 0.0
2018-Dec-01 19:29N 20°29' W 086°59'0 0.0
2018-Dec-01 18:59N 20°29' W 086°59'0 0.0
2018-Dec-01 18:29N 20°29' W 086°59'0 0.0
2018-Dec-01 17:59N 20°29' W 086°59'0 0.0
2018-Dec-01 17:29N 20°29' W 086°59'0 0.0
2018-Dec-01 17:01N 20°29' W 086°59'1 1.7
2018-Dec-01 16:30N 20°29' W 086°59'3 6.7
2018-Dec-01 16:00N 20°33' W 086°58'8717.4
2018-Dec-01 11:00N 21°30' W 085°48'7418.4 130 / 341011.1 5.4 25.022.226.0
2018-Dec-01 07:00N 22°24' W 084°54'238 9.9 110 / 341012.210.8 25.023.628.0
2018-Nov-30 07:00N 24°18' W 081°06'8713.6 110 / 121017.810.8 23.015.228.0
2018-Nov-30 00:34N 25°11' W 079°50'114.1
2018-Nov-30 00:30N 25°12' W 079°50'713.7
2018-Nov-30 00:00N 25°19' W 079°48'714.0
2018-Nov-29 23:30N 25°26' W 079°48'714.0
2018-Nov-29 23:00N 25°33' W 079°49'9550.1
2018-Nov-29 23:00N 25°24' W 079°48'1530.7 040 / 181019.2 25.020.723.0
2018-Nov-29 22:30N 25°38' W 079°53'714.1
2018-Nov-29 22:01N 25°43' W 079°59'612.2
2018-Nov-29 21:30N 25°46' W 080°05'5 9.2
2018-Nov-29 21:00N 25°47' W 080°10'0 0.1
2018-Nov-29 20:29N 25°47' W 080°10'0 0.0
2018-Nov-29 19:59N 25°47' W 080°10'0 0.0
2018-Nov-29 19:29N 25°47' W 080°10'0 0.0
2018-Nov-29 18:59N 25°47' W 080°10'0 0.0
2018-Nov-29 18:29N 25°47' W 080°10'0 0.0
2018-Nov-29 17:59N 25°47' W 080°10'0 0.0
2018-Nov-29 17:29N 25°47' W 080°10'0 0.0
2018-Nov-29 16:59N 25°47' W 080°10'0 0.0
2018-Nov-29 16:29N 25°47' W 080°10'0 0.0
2018-Nov-29 15:59N 25°47' W 080°10'0 0.0
2018-Nov-29 15:28N 25°47' W 080°10'0 0.0
2018-Nov-29 14:58N 25°47' W 080°10'0 0.0
2018-Nov-29 14:28N 25°47' W 080°10'0 0.0
2018-Nov-29 13:58N 25°47' W 080°10'0 0.0
2018-Nov-29 13:28N 25°47' W 080°10'0 0.0
2018-Nov-29 12:58N 25°47' W 080°10'0 0.0
2018-Nov-29 12:28N 25°47' W 080°10'0 0.0
2018-Nov-29 11:58N 25°47' W 080°10'0 0.6
2018-Nov-29 11:30N 25°47' W 080°10'1 2.2
2018-Nov-29 11:00N 25°46' W 080°09'510.0
2018-Nov-29 10:30N 25°46' W 080°04'611.4
2018-Nov-29 10:00N 25°46' W 079°57'612.0
2018-Nov-29 09:30N 25°46' W 079°51'612.6
2018-Nov-29 09:00N 25°47' W 079°44'611.5
2018-Nov-29 08:30N 25°52' W 079°40'  
Track history (hours):
 
Tides and Currents Weather Stations Pressure Air Temp Water Temp Dewpoint Dewpoint Depression Visibility Wind Speed Wind Dir Waves Ship Positions

Sensation

Last reported at 2018-Dec-09 08:00 UTC. Time now 2018-Dec-09 20:26 UTC.
Position N 25°48' W 077°42'.

Type: Ship. MMSI: 309697000.

Wind from 130 at 20 knots

Barometer 1019.4 mb
Air temperature 25.0 ° C
Visibility: greater than 10.8 NM
Dewpoint 22.2 ° C
Water temperature 25.0 ° C

Date/timePositionNaut miles runAvg speedWind from/ knotsBaromVisibWave heightAir tempDewpointWater temp
2018-Dec-09 08:00N 25°48' W 077°42'9013.1 130 / 201019.410.8 25.022.225.0
2018-Dec-09 01:07N 26°13' W 079°18'215.4
2018-Dec-09 00:58N 26°12' W 079°21'716.3
2018-Dec-09 00:31N 26°07' W 079°26'816.6
2018-Dec-09 00:01N 26°01' W 079°33'816.9
2018-Dec-08 23:31N 25°55' W 079°40'815.9
2018-Dec-08 23:00N 25°51' W 079°48'815.5
2018-Dec-08 22:30N 25°49' W 079°56'612.2
2018-Dec-08 22:00N 25°48' W 080°03'510.5
2018-Dec-08 21:30N 25°46' W 080°08'3 5.7
2018-Dec-08 21:00N 25°47' W 080°11'1 1.4
2018-Dec-08 20:30N 25°47' W 080°10'0 0.0
2018-Dec-08 20:00N 25°47' W 080°10'0 0.0
2018-Dec-08 19:30N 25°47' W 080°10'0 0.0
2018-Dec-08 19:00N 25°47' W 080°10'0 0.0
2018-Dec-08 18:30N 25°47' W 080°10'0 0.0
2018-Dec-08 18:00N 25°47' W 080°10'0 0.0
2018-Dec-08 17:30N 25°47' W 080°10'0 0.0
2018-Dec-08 17:00N 25°47' W 080°10'0 0.0
2018-Dec-08 16:30N 25°47' W 080°10'0 0.0
2018-Dec-08 16:00N 25°47' W 080°10'0 0.0
2018-Dec-08 15:30N 25°47' W 080°10'0 0.0
2018-Dec-08 14:59N 25°47' W 080°10'0 0.0
2018-Dec-08 14:29N 25°47' W 080°10'0 0.0
2018-Dec-08 13:59N 25°47' W 080°10'0 0.0
2018-Dec-08 13:29N 25°47' W 080°10'0 0.0
2018-Dec-08 12:59N 25°47' W 080°10'0 0.0
2018-Dec-08 12:29N 25°47' W 080°10'0 0.0
2018-Dec-08 11:59N 25°47' W 080°10'1 1.2
2018-Dec-08 11:30N 25°46' W 080°10'4 8.5
2018-Dec-08 11:00N 25°46' W 080°05'4 9.0
2018-Dec-08 10:30N 25°45' W 080°00'611.2
2018-Dec-08 10:00N 25°40' W 079°57'1019.9
2018-Dec-08 09:30N 25°30' W 079°56'1020.0
2018-Dec-08 09:00N 25°20' W 079°56'387 7.6
2018-Dec-06 06:00N 18°54' W 079°24'267 7.6 030 / 181016.410.8 26.023.227.0
2018-Dec-04 19:00N 21°18' W 075°24'16720.8 020 / 131013.910.8 28.025.3
2018-Dec-04 11:00N 22°30' W 078°06'11817.1 030 / 101015.410.8 27.021.324.0
2018-Dec-04 04:06N 24°07' W 079°19'218.4
2018-Dec-04 04:00N 24°09' W 079°20'1418.8
2018-Dec-04 03:17N 24°22' W 079°23'719.0
2018-Dec-04 02:56N 24°29' W 079°24'1319.0
2018-Dec-04 02:15N 24°41' W 079°27'518.7
2018-Dec-04 01:58N 24°46' W 079°29'918.7
2018-Dec-04 01:30N 24°55' W 079°30'918.1
2018-Dec-04 01:01N 25°04' W 079°32'917.7
2018-Dec-04 00:30N 25°12' W 079°34'917.2
2018-Dec-04 00:01N 25°21' W 079°36'816.8
2018-Dec-03 23:30N 25°29' W 079°39'714.8
2018-Dec-03 23:01N 25°36' W 079°42'815.8
2018-Dec-03 22:31N 25°39' W 079°50'815.2
2018-Dec-03 22:00N 25°43' W 079°57'713.3
2018-Dec-03 21:31N 25°46' W 080°03'510.2
2018-Dec-03 21:01N 25°46' W 080°09'1 1.6
2018-Dec-03 20:23N 25°47' W 080°10'0 0.0
2018-Dec-03 19:59N 25°47' W 080°10'0 0.0
2018-Dec-03 19:23N 25°47' W 080°10'0 0.0
2018-Dec-03 18:53N 25°47' W 080°10'0 0.0
2018-Dec-03 18:29N 25°47' W 080°10'0 0.0
2018-Dec-03 17:59N 25°47' W 080°10'0 0.0
2018-Dec-03 17:29N 25°47' W 080°10'0 0.0
2018-Dec-03 16:59N 25°47' W 080°10'0 0.0
2018-Dec-03 16:29N 25°47' W 080°10'0 0.0
2018-Dec-03 15:56N 25°47' W 080°10'0 0.0
2018-Dec-03 15:29N 25°47' W 080°10'0 0.0
2018-Dec-03 14:59N 25°47' W 080°10'0 0.0
2018-Dec-03 14:30N 25°47' W 080°10'0 0.0
2018-Dec-03 14:00N 25°47' W 080°10'0 0.0
2018-Dec-03 13:30N 25°47' W 080°10'0 0.0
2018-Dec-03 13:00N 25°47' W 080°10'0 0.0
2018-Dec-03 12:30N 25°47' W 080°10'0 0.0
2018-Dec-03 12:00N 25°47' W 080°10'1 1.3
2018-Dec-03 11:30N 25°47' W 080°11'2 3.6
2018-Dec-03 11:00N 25°46' W 080°09'510.2
2018-Dec-03 10:31N 25°47' W 080°03'611.2
2018-Dec-03 10:00N 25°43' W 079°58'611.7
2018-Dec-03 09:30N 25°38' W 079°56'714.7
2018-Dec-03 09:00N 25°31' W 079°56'815.9
2018-Dec-03 08:30N 25°23' W 079°56'816.3
2018-Dec-03 08:00N 25°15' W 079°58'816.2
2018-Dec-03 07:30N 25°07' W 079°60'815.9
2018-Dec-03 07:00N 24°59' W 080°02'815.5
2018-Dec-03 06:30N 24°51' W 080°03'815.3
2018-Dec-03 06:00N 24°46' W 080°09'816.1
2018-Dec-03 05:30N 24°40' W 080°16'1019.1
2018-Dec-03 05:00N 24°34' W 080°24'918.9
2018-Dec-03 04:30N 24°27' W 080°31'918.4
2018-Dec-03 04:00N 24°21' W 080°39'1018.2
2018-Dec-03 03:27N 24°14' W 080°46'1018.2
2018-Dec-03 02:54N 24°07' W 080°54'718.0
2018-Dec-03 02:30N 24°02' W 080°59'33217.0
2018-Dec-02 07:00N 21°18' W 086°12'3118.4 120 / 301010.110.8 28.022.425.0
2018-Dec-02 05:19N 21°00' W 086°39'2919.0
2018-Dec-02 03:47N 20°37' W 086°57'415.4
2018-Dec-02 03:31N 20°33' W 086°59'4 8.1
2018-Dec-02 03:00N 20°29' W 086°59'0 0.1
2018-Dec-02 02:29N 20°29' W 086°59'0 0.0
2018-Dec-02 01:56N 20°29' W 086°59'0 0.0
2018-Dec-02 01:29N 20°29' W 086°59'0 0.0
2018-Dec-02 00:59N 20°29' W 086°59'0 0.0
2018-Dec-02 00:29N 20°29' W 086°59'0 0.0
2018-Dec-01 23:59N 20°29' W 086°59'0 0.0
2018-Dec-01 23:29N 20°29' W 086°59'0 0.0
2018-Dec-01 22:59N 20°29' W 086°59'0 0.0
2018-Dec-01 22:26N 20°29' W 086°59'0 0.0
2018-Dec-01 21:59N 20°29' W 086°59'0 0.0
2018-Dec-01 21:26N 20°29' W 086°59'0 0.0
2018-Dec-01 20:59N 20°29' W 086°59'0 0.0
2018-Dec-01 20:29N 20°29' W 086°59'0 0.0
2018-Dec-01 19:59N 20°29' W 086°59'0 0.0
2018-Dec-01 19:29N 20°29' W 086°59'0 0.0
2018-Dec-01 18:59N 20°29' W 086°59'0 0.0
2018-Dec-01 18:29N 20°29' W 086°59'0 0.0
2018-Dec-01 17:59N 20°29' W 086°59'0 0.0
2018-Dec-01 17:29N 20°29' W 086°59'0 0.0
2018-Dec-01 17:01N 20°29' W 086°59'1 1.7
2018-Dec-01 16:30N 20°29' W 086°59'3 6.7
2018-Dec-01 16:00N 20°33' W 086°58'8717.4
2018-Dec-01 11:00N 21°30' W 085°48'7418.4 130 / 341011.1 5.4 25.022.226.0
2018-Dec-01 07:00N 22°24' W 084°54'238 9.9 110 / 341012.210.8 25.023.628.0
2018-Nov-30 07:00N 24°18' W 081°06'8713.6 110 / 121017.810.8 23.015.228.0
2018-Nov-30 00:34N 25°11' W 079°50'114.1
2018-Nov-30 00:30N 25°12' W 079°50'713.7
2018-Nov-30 00:00N 25°19' W 079°48'714.0
2018-Nov-29 23:30N 25°26' W 079°48'714.0
2018-Nov-29 23:00N 25°33' W 079°49'9550.1
2018-Nov-29 23:00N 25°24' W 079°48'1530.7 040 / 181019.2 25.020.723.0
2018-Nov-29 22:30N 25°38' W 079°53'714.1
2018-Nov-29 22:01N 25°43' W 079°59'612.2
2018-Nov-29 21:30N 25°46' W 080°05'5 9.2
2018-Nov-29 21:00N 25°47' W 080°10'0 0.1
2018-Nov-29 20:29N 25°47' W 080°10'0 0.0
2018-Nov-29 19:59N 25°47' W 080°10'0 0.0
2018-Nov-29 19:29N 25°47' W 080°10'0 0.0
2018-Nov-29 18:59N 25°47' W 080°10'0 0.0
2018-Nov-29 18:29N 25°47' W 080°10'0 0.0
2018-Nov-29 17:59N 25°47' W 080°10'0 0.0
2018-Nov-29 17:29N 25°47' W 080°10'0 0.0
2018-Nov-29 16:59N 25°47' W 080°10'0 0.0
2018-Nov-29 16:29N 25°47' W 080°10'0 0.0
2018-Nov-29 15:59N 25°47' W 080°10'0 0.0
2018-Nov-29 15:28N 25°47' W 080°10'0 0.0
2018-Nov-29 14:58N 25°47' W 080°10'0 0.0
2018-Nov-29 14:28N 25°47' W 080°10'0 0.0
2018-Nov-29 13:58N 25°47' W 080°10'0 0.0
2018-Nov-29 13:28N 25°47' W 080°10'0 0.0
2018-Nov-29 12:58N 25°47' W 080°10'0 0.0
2018-Nov-29 12:28N 25°47' W 080°10'0 0.0
2018-Nov-29 11:58N 25°47' W 080°10'0 0.6
2018-Nov-29 11:30N 25°47' W 080°10'1 2.2
2018-Nov-29 11:00N 25°46' W 080°09'510.0
2018-Nov-29 10:30N 25°46' W 080°04'611.4
2018-Nov-29 10:00N 25°46' W 079°57'612.0
2018-Nov-29 09:30N 25°46' W 079°51'612.6
2018-Nov-29 09:00N 25°47' W 079°44'611.5
2018-Nov-29 08:30N 25°52' W 079°40'  

Dump ship's entire track history